Data for 02/11/2007

Time Sea-Level Adjusted Pressure Absolute Pressure Temperature Relative Humidity Dew Point   
(mb) (inHg) (mb) (inHg) (C) (F) (%) (C) (F)
00:05 1010 29.83 840 24.81 -0.4 31.3 72 -4.9 23.2
00:10 1010 29.83 840 24.81 -0.2 31.6 72 -4.7 23.5
00:15 1010 29.83 840 24.81 -0.3 31.5 74 -4.4 24.1
00:20 1010 29.83 839 24.78 -0.2 31.6 72 -4.6 23.7
00:25 1010 29.83 839 24.78 0.1 32.2 70 -4.7 23.6
00:30 1010 29.83 839 24.78 0.1 32.2 71 -4.5 23.9
00:35 1010 29.83 839 24.78 0.2 32.3 71 -4.4 24.1
00:40 1010 29.83 839 24.78 0.2 32.4 71 -4.4 24.2
00:45 1010 29.83 839 24.78 0.3 32.6 70 -4.5 24
00:50 1010 29.83 839 24.78 0.3 32.6 70 -4.4 24
00:55 1010 29.83 839 24.78 0.2 32.4 72 -4.2 24.4
01:00 1010 29.83 839 24.78 0.1 32.3 73 -4.1 24.5
01:05 1010 29.83 839 24.78 0.2 32.4 72 -4.2 24.4
01:10 1010 29.83 839 24.78 -0 32 72 -4.5 24
01:15 1010 29.83 839 24.78 -0.1 31.7 73 -4.5 23.9
01:20 1010 29.83 839 24.78 -0.1 31.9 73 -4.4 24.1
01:25 1010 29.83 839 24.78 -0.1 31.9 72 -4.5 23.8
01:30 1010 29.83 839 24.78 0.1 32.3 71 -4.6 23.8
01:35 1010 29.83 839 24.78 0.3 32.6 72 -4.1 24.6
01:40 1010 29.83 839 24.78 0.7 33.2 70 -4.1 24.6
01:45 1010 29.83 839 24.78 0.9 33.7 71 -3.8 25.1
01:50 1010 29.83 839 24.78 1.1 34 69 -4 24.8
01:55 1010 29.83 839 24.78 1.2 34.1 68 -4.1 24.7
02:00 1010 29.83 839 24.78 1 33.7 68 -4.4 24.2
02:05 1010 29.83 839 24.78 0.8 33.5 70 -4.1 24.7
02:10 1010 29.83 839 24.78 0.7 33.3 70 -4.1 24.6
02:15 1010 29.83 839 24.78 0.6 33.1 72 -3.8 25.1
02:20 1010 29.83 839 24.78 0.6 33.1 72 -3.9 24.9
02:25 1010 29.83 839 24.78 0.7 33.2 73 -3.6 25.5
02:30 1010 29.83 839 24.78 0.5 33 76 -3.3 26.1
02:35 1010 29.83 839 24.78 0.4 32.7 78 -3 26.6
02:40 1010 29.83 839 24.78 0.2 32.4 80 -2.8 26.9
02:45 1010 29.83 839 24.78 0.2 32.4 81 -2.7 27.2
02:50 1010 29.83 839 24.78 0.1 32.2 82 -2.6 27.4
02:55 1010 29.83 839 24.78 -0.1 31.9 85 -2.3 27.9
03:00 1010 29.83 839 24.78 -0.3 31.5 88 -2.1 28.3
03:05 1010 29.83 839 24.78 -0.3 31.4 88 -2 28.3
03:10 1009 29.8 839 24.78 -0.3 31.4 89 -1.8 28.7
03:15 1009 29.8 839 24.78 -0.4 31.3 91 -1.6 29
03:20 1009 29.8 839 24.78 -0.5 31.2 92 -1.6 29.2
03:25 1009 29.8 838 24.75 -0.5 31.1 93 -1.5 29.3
03:30 1009 29.8 838 24.75 -0.6 31 94 -1.4 29.4
03:35 1009 29.8 838 24.75 -0.6 31 94 -1.3 29.6
03:40 1009 29.8 838 24.75 -0.5 31.1 95 -1.2 29.8
03:45 1009 29.8 838 24.75 -0.5 31.1 96 -1.1 30
03:50 1009 29.8 838 24.75 -0.4 31.2 96 -1 30.2
03:55 1009 29.8 838 24.75 -0.3 31.4 96 -0.8 30.5
04:00 1009 29.8 838 24.75 -0.3 31.5 97 -0.7 30.7
04:05 1009 29.8 838 24.75 -0.1 31.7 97 -0.6 30.9
04:10 1009 29.8 838 24.75 -0.1 31.8 97 -0.5 31.1
04:15 1009 29.8 838 24.75 -0 32 97 -0.4 31.3
04:20 1009 29.8 838 24.75 0 32 97 -0.4 31.4
04:25 1009 29.8 838 24.75 0.1 32.1 97 -0.3 31.4
04:30 1009 29.8 838 24.75 0.1 32.2 98 -0.2 31.6
04:35 1009 29.8 838 24.75 0.1 32.3 98 -0.2 31.7
04:40 1009 29.8 838 24.75 0.1 32.3 98 -0.2 31.7
04:45 1009 29.8 838 24.75 0.2 32.4 98 -0.1 31.8
04:50 1009 29.8 838 24.75 0.2 32.4 98 -0.1 31.8
04:55 1009 29.8 838 24.75 0.2 32.4 98 -0.1 31.8
05:00 1009 29.8 838 24.75 0.2 32.3 98 -0.1 31.7
05:05 1009 29.8 838 24.75 0.2 32.4 98 -0.1 31.8
05:10 1009 29.8 838 24.75 0.2 32.4 98 -0.1 31.8
05:15 1009 29.8 838 24.75 0.2 32.4 98 -0.1 31.8
05:20 1009 29.8 838 24.75 0.2 32.4 98 -0.1 31.9
05:25 1009 29.8 838 24.75 0.2 32.4 98 -0.1 31.9
05:30 1009 29.8 838 24.75 0.2 32.4 98 -0.1 31.8
05:35 1009 29.8 838 24.75 0.3 32.5 98 -0.1 31.9
05:40 1009 29.8 838 24.75 0.3 32.6 98 -0 32
05:45 1009 29.8 838 24.75 0.3 32.6 97 -0.1 31.9
05:50 1009 29.8 838 24.75 0.4 32.6 97 -0 32
05:55 1009 29.8 838 24.75 0.4 32.7 97 0 32
06:00 1009 29.8 838 24.75 0.4 32.7 97 0 32
06:05 1009 29.8 838 24.75 0.4 32.7 97 -0 32
06:10 1009 29.8 838 24.75 0.4 32.8 97 -0 32
06:15 1009 29.8 838 24.75 0.4 32.8 97 -0 32
06:20 1009 29.8 838 24.75 0.5 32.8 96 -0.1 31.9
06:25 1009 29.8 838 24.75 0.5 32.9 96 -0.1 31.8
06:30 1009 29.8 838 24.75 0.5 32.9 95 -0.2 31.7
06:35 1008 29.77 838 24.75 0.5 32.9 96 -0.1 31.8
06:40 1008 29.77 838 24.75 0.6 33.1 95 -0.1 31.8
06:45 1008 29.77 838 24.75 0.6 33.1 95 -0.1 31.8
06:50 1008 29.77 838 24.75 0.6 33.1 94 -0.2 31.7
06:55 1008 29.77 838 24.75 0.7 33.2 95 -0.1 31.8
07:00 1009 29.8 838 24.75 0.7 33.3 94 -0.1 31.8
07:05 1009 29.8 838 24.75 0.7 33.3 95 -0.1 31.9
07:10 1008 29.77 838 24.75 0.7 33.2 95 -0.1 31.8
07:15 1009 29.8 838 24.75 0.6 33.1 95 -0.1 31.8
07:20 1009 29.8 838 24.75 0.6 33.1 95 -0.1 31.7
07:25 1009 29.8 838 24.75 0.6 33.1 95 -0.2 31.7
07:30 1009 29.8 838 24.75 0.5 33 94 -0.3 31.4
07:35 1009 29.8 838 24.75 0.5 33 93 -0.4 31.3
07:40 1009 29.8 838 24.75 0.3 32.6 95 -0.4 31.2
07:45 1009 29.8 838 24.75 0.2 32.4 94 -0.7 30.8
07:50 1009 29.8 838 24.75 0 32 95 -0.7 30.7
07:55 1009 29.8 838 24.75 0.1 32.1 95 -0.6 30.9
08:00 1009 29.8 838 24.75 0.2 32.4 95 -0.5 31
08:05 1009 29.8 838 24.75 0.2 32.4 94 -0.6 30.9
08:10 1009 29.8 838 24.75 0.3 32.5 94 -0.5 31.1
08:15 1009 29.8 838 24.75 0.2 32.3 95 -0.5 31.1
08:20 1009 29.8 838 24.75 0.2 32.4 96 -0.4 31.3
08:25 1009 29.8 838 24.75 0.3 32.5 95 -0.4 31.4
08:30 1009 29.8 838 24.75 0.1 32.3 96 -0.5 31.1
08:35 1009 29.8 838 24.75 0.2 32.3 96 -0.4 31.2
08:40 1009 29.8 838 24.75 0.2 32.3 96 -0.4 31.4
08:45 1009 29.8 838 24.75 0.3 32.6 97 -0.2 31.7
08:50 1009 29.8 838 24.75 0.4 32.7 96 -0.2 31.7
08:55 1009 29.8 838 24.75 0.3 32.6 96 -0.2 31.6
09:00 1009 29.8 838 24.75 0.3 32.6 96 -0.2 31.6
09:05 1009 29.8 838 24.75 0.5 32.9 96 -0.1 31.9
09:10 1009 29.8 838 24.75 0.7 33.3 95 0 32
09:15 1009 29.8 838 24.75 0.8 33.4 94 -0 31.9
09:20 1009 29.8 838 24.75 0.9 33.5 94 -0 31.9
09:25 1009 29.8 838 24.75 0.9 33.6 92 -0.2 31.6
09:30 1009 29.8 838 24.75 1.1 34 91 -0.2 31.6
09:35 1009 29.8 838 24.75 1.2 34.1 91 -0.2 31.7
09:40 1009 29.8 838 24.75 1.3 34.3 91 -0.1 31.8
09:45 1009 29.8 838 24.75 1.4 34.5 90 -0.1 31.8
09:50 1009 29.8 838 24.75 1.7 35 89 0 32
09:55 1009 29.8 838 24.75 2 35.6 88 0.2 32.3
10:00 1009 29.8 838 24.75 2.5 36.4 86 0.3 32.6
10:05 1009 29.8 838 24.75 3 37.5 83 0.4 32.8
10:10 1009 29.8 838 24.75 3.3 38 82 0.6 33
10:15 1009 29.8 838 24.75 3.5 38.3 81 0.6 33.1
10:20 1009 29.8 838 24.75 3.8 38.9 80 0.7 33.2
10:25 1009 29.8 838 24.75 4.2 39.5 78 0.7 33.3
10:30 1009 29.8 838 24.75 4.2 39.6 78 0.8 33.4
10:35 1009 29.8 838 24.75 4.3 39.8 79 1 33.7
10:40 1009 29.8 838 24.75 4.3 39.7 79 1 33.7
10:45 1009 29.8 838 24.75 4 39.3 79 0.7 33.3
10:50 1009 29.8 838 24.75 4.3 39.7 79 0.9 33.7
10:55 1009 29.8 838 24.75 4.4 39.9 79 1.1 34
11:00 1009 29.8 838 24.75 4.8 40.7 76 1 33.9
11:05 1009 29.8 838 24.75 5.2 41.4 75 1.2 34.2
11:10 1009 29.8 838 24.75 5.4 41.8 74 1.2 34.1
11:15 1009 29.8 838 24.75 5.4 41.7 75 1.3 34.4
11:20 1009 29.8 838 24.75 5.3 41.5 75 1.2 34.1
11:25 1009 29.8 838 24.75 5.2 41.4 75 1.2 34.1
11:30 1009 29.8 838 24.75 5.5 41.9 73 1.1 34
11:35 1009 29.8 838 24.75 5.7 42.3 72 1.1 34.1
11:40 1009 29.8 838 24.75 5.7 42.3 72 1 33.9
11:45 1009 29.8 838 24.75 6.1 43 70 1.1 33.9
11:50 1008 29.77 838 24.75 6.5 43.8 69 1.3 34.3
11:55 1008 29.77 838 24.75 6.4 43.4 70 1.3 34.3
12:00 1008 29.77 838 24.75 6.7 44 70 1.6 34.9
12:05 1008 29.77 837 24.72 6.7 44 71 1.8 35.3
12:10 1008 29.77 837 24.72 6.2 43.1 75 2.1 35.8
12:15 1008 29.77 837 24.72 5.7 42.2 76 1.8 35.3
12:20 1008 29.77 837 24.72 5.8 42.4 74 1.5 34.8
12:25 1008 29.77 837 24.72 5.9 42.6 75 1.8 35.2
12:30 1008 29.77 837 24.72 6 42.9 73 1.6 34.8
12:35 1008 29.77 837 24.72 6.5 43.7 73 2 35.5
12:40 1008 29.77 837 24.72 6.8 44.2 70 1.8 35.2
12:45 1008 29.77 837 24.72 6.7 44.1 71 1.9 35.3
12:50 1008 29.77 837 24.72 7.1 44.7 69 1.9 35.4
12:55 1008 29.77 837 24.72 7.3 45.2 68 1.8 35.3
13:00 1008 29.77 837 24.72 6.9 44.3 71 1.9 35.5
13:05 1008 29.77 837 24.72 6.5 43.7 71 1.6 34.8
13:10 1008 29.77 837 24.72 6 42.7 74 1.6 34.9
13:15 1008 29.77 837 24.72 6.4 43.4 71 1.4 34.5
13:20 1008 29.77 837 24.72 5.7 42.3 74 1.4 34.6
13:25 1008 29.77 837 24.72 5.7 42.3 76 1.7 35.1
13:30 1008 29.77 837 24.72 5.6 42.1 74 1.4 34.5
13:35 1008 29.77 837 24.72 5.9 42.6 74 1.5 34.8
13:40 1008 29.77 837 24.72 5.7 42.3 73 1.4 34.4
13:45 1007 29.74 837 24.72 5.3 41.6 75 1.2 34.2
13:50 1007 29.74 837 24.72 5.2 41.4 76 1.3 34.3
13:55 1007 29.74 837 24.72 4.9 40.8 79 1.5 34.7
14:00 1007 29.74 837 24.72 4.2 39.6 81 1.3 34.4
14:05 1007 29.74 836 24.69 4.2 39.6 80 1 33.8
14:10 1007 29.74 836 24.69 4.3 39.7 78 0.9 33.6
14:15 1007 29.74 836 24.69 4.8 40.7 77 1.2 34.1
14:20 1007 29.74 836 24.69 5.7 42.2 72 0.9 33.7
14:25 1007 29.74 836 24.69 5.7 42.3 73 1.3 34.3
14:30 1007 29.74 836 24.69 5.4 41.7 77 1.8 35.2
14:35 1007 29.74 836 24.69 4.2 39.6 81 1.2 34.2
14:40 1007 29.74 836 24.69 4.3 39.8 80 1.1 34
14:45 1007 29.74 836 24.69 4.2 39.6 81 1.2 34.2
14:50 1007 29.74 836 24.69 5 40.9 76 1 33.8
14:55 1007 29.74 836 24.69 6.4 43.5 71 1.5 34.7
15:00 1007 29.74 836 24.69 6.5 43.6 72 1.8 35.2
15:05 1007 29.74 836 24.69 5.8 42.5 75 1.7 35
15:10 1007 29.74 836 24.69 5.2 41.4 76 1.3 34.4
15:15 1007 29.74 836 24.69 4.9 40.9 78 1.4 34.6
15:20 1007 29.74 836 24.69 4.7 40.5 77 1 33.7
15:25 1007 29.74 836 24.69 4.8 40.6 76 1 33.8
15:30 1007 29.74 836 24.69 4.5 40.1 79 1.2 34.1
15:35 1007 29.74 836 24.69 4 39.2 80 0.9 33.7
15:40 1007 29.74 836 24.69 3.9 39 81 0.9 33.6
15:45 1007 29.74 836 24.69 3.8 38.8 82 1.1 33.9
15:50 1007 29.74 836 24.69 3.8 38.8 82 1.1 33.9
15:55 1007 29.74 836 24.69 4.1 39.4 80 1 33.8
16:00 1007 29.74 836 24.69 4.7 40.5 77 1.1 34
16:05 1007 29.74 836 24.69 4.4 39.8 80 1.2 34.1
16:10 1007 29.74 836 24.69 4.4 39.9 78 1 33.7
16:15 1007 29.74 836 24.69 4.4 40 79 1 33.9
16:20 1007 29.74 836 24.69 4.8 40.6 77 1.1 34
16:25 1007 29.74 836 24.69 4.7 40.5 77 1.1 33.9
16:30 1007 29.74 836 24.69 4.5 40.2 76 0.8 33.4
16:35 1007 29.74 836 24.69 4.5 40 78 1 33.8
16:40 1007 29.74 836 24.69 4.7 40.4 77 1 33.8
16:45 1007 29.74 836 24.69 4.6 40.3 77 1 33.7
16:50 1007 29.74 836 24.69 4.7 40.5 77 0.9 33.7
16:55 1007 29.74 836 24.69 4.9 40.9 76 1.1 33.9
17:00 1007 29.74 836 24.69 5 40.9 76 1 33.9
17:05 1007 29.74 836 24.69 5.1 41.1 74 0.9 33.6
17:10 1007 29.74 836 24.69 5 41 75 0.9 33.6
17:15 1007 29.74 836 24.69 4.9 40.9 74 0.7 33.3
17:20 1007 29.74 836 24.69 5 41 74 0.8 33.5
17:25 1007 29.74 837 24.72 4.9 40.9 75 0.9 33.6
17:30 1007 29.74 837 24.72 4.8 40.6 77 1 33.9
17:35 1007 29.74 837 24.72 4.5 40.1 78 1 33.7
17:40 1007 29.74 837 24.72 4.4 39.9 78 1 33.7
17:45 1007 29.74 837 24.72 4.2 39.6 81 1.2 34.2
17:50 1007 29.74 837 24.72 4 39.1 82 1.2 34.1
17:55 1007 29.74 837 24.72 3.8 38.9 82 1 33.8
18:00 1008 29.77 837 24.72 3.8 38.8 82 0.9 33.7
18:05 1008 29.77 837 24.72 3.9 39.1 80 0.8 33.4
18:10 1008 29.77 837 24.72 4 39.1 81 1 33.7
18:15 1008 29.77 837 24.72 3.8 38.8 82 1 33.7
18:20 1008 29.77 837 24.72 3.5 38.4 82 0.8 33.4
18:25 1008 29.77 837 24.72 3.4 38.1 79 0.1 32.2
18:30 1008 29.77 837 24.72 3.3 38 80 0.2 32.3
18:35 1008 29.77 837 24.72 3.2 37.8 80 0.2 32.3
18:40 1008 29.77 837 24.72 3.3 37.9 80 0.2 32.4
18:45 1008 29.77 837 24.72 3.2 37.8 81 0.2 32.4
18:50 1008 29.77 837 24.72 3.3 38 81 0.3 32.6
18:55 1008 29.77 837 24.72 3.2 37.8 81 0.4 32.7
19:00 1008 29.77 837 24.72 3.2 37.7 82 0.4 32.7
19:05 1008 29.77 837 24.72 3.1 37.6 83 0.5 32.8
19:10 1008 29.77 837 24.72 3.1 37.6 83 0.5 32.9
19:15 1008 29.77 837 24.72 3.1 37.5 83 0.5 32.9
19:20 1008 29.77 837 24.72 3.1 37.5 83 0.5 32.9
19:25 1008 29.77 837 24.72 3 37.4 84 0.5 33
19:30 1008 29.77 837 24.72 3 37.4 84 0.5 33
19:35 1008 29.77 837 24.72 3 37.3 84 0.5 32.9
19:40 1008 29.77 837 24.72 2.9 37.3 84 0.5 32.9
19:45 1008 29.77 837 24.72 2.9 37.2 84 0.5 33
19:50 1008 29.77 837 24.72 2.9 37.2 84 0.5 33
19:55 1008 29.77 837 24.72 2.9 37.2 84 0.5 32.9
20:00 1008 29.77 837 24.72 2.9 37.2 84 0.5 32.9
20:05 1008 29.77 837 24.72 2.9 37.1 84 0.5 32.9
20:10 1008 29.77 837 24.72 2.8 37.1 85 0.5 32.9
20:15 1008 29.77 837 24.72 2.8 37 85 0.5 33
20:20 1008 29.77 837 24.72 2.7 36.9 86 0.5 33
20:25 1008 29.77 837 24.72 2.6 36.7 86 0.6 33
20:30 1008 29.77 837 24.72 2.5 36.5 86 0.4 32.7
20:35 1008 29.77 837 24.72 2.3 36.2 87 0.4 32.8
20:40 1008 29.77 837 24.72 2.1 35.8 88 0.2 32.4
20:45 1008 29.77 837 24.72 1.9 35.5 88 0.2 32.3
20:50 1008 29.77 837 24.72 1.8 35.2 88 0.1 32.2
20:55 1008 29.77 837 24.72 1.7 35.1 89 0 32
21:00 1008 29.77 837 24.72 1.6 34.9 89 0 32
21:05 1008 29.77 837 24.72 1.6 34.8 90 0.1 32.1
21:10 1008 29.77 838 24.75 1.5 34.8 90 0.1 32.1
21:15 1008 29.77 838 24.75 1.5 34.7 90 0.1 32.1
21:20 1008 29.77 838 24.75 1 33.7 92 -0.2 31.6
21:25 1009 29.8 838 24.75 0.2 32.4 94 -0.7 30.8
21:30 1009 29.8 838 24.75 -0.1 31.9 95 -0.8 30.5
21:35 1009 29.8 838 24.75 -0.2 31.6 95 -0.9 30.3
21:40 1009 29.8 838 24.75 -0.3 31.5 96 -0.9 30.4
21:45 1009 29.8 838 24.75 -0.3 31.4 96 -1 30.3
21:50 1009 29.8 838 24.75 -0.4 31.3 96 -1 30.2
21:55 1009 29.8 838 24.75 -0.4 31.3 95 -1 30.2
22:00 1009 29.8 838 24.75 -0.4 31.3 95 -1 30.1
22:05 1009 29.8 838 24.75 -0.4 31.3 95 -1.1 30.1
22:10 1009 29.8 838 24.75 -0.1 31.8 94 -1 30.2
22:15 1009 29.8 838 24.75 -0.1 31.9 93 -1 30.2
22:20 1009 29.8 838 24.75 -0.1 31.8 93 -1.1 30.1
22:25 1009 29.8 838 24.75 -0.2 31.6 94 -1.1 30.1
22:30 1009 29.8 838 24.75 -0.2 31.6 93 -1.2 29.8
22:35 1009 29.8 838 24.75 -0.2 31.6 93 -1.2 29.9
22:40 1009 29.8 838 24.75 -0.3 31.4 95 -1 30.1
22:45 1009 29.8 838 24.75 -0.3 31.5 95 -0.9 30.3
22:50 1009 29.8 838 24.75 -0.5 31.1 96 -1.1 30.1
22:55 1009 29.8 838 24.75 -0.6 30.9 97 -1.1 30
23:00 1009 29.8 838 24.75 -0.7 30.8 95 -1.4 29.5
23:05 1009 29.8 838 24.75 -0.9 30.3 94 -1.8 28.8
23:10 1009 29.8 838 24.75 -1.1 30.1 94 -2 28.4
23:15 1009 29.8 838 24.75 -1.1 30 94 -2 28.3
23:20 1009 29.8 838 24.75 -1.4 29.4 94 -2.3 27.9
23:25 1009 29.8 838 24.75 -1.4 29.4 93 -2.4 27.7
23:30 1009 29.8 838 24.75 -1.6 29.1 94 -2.4 27.7
23:35 1009 29.8 839 24.78 -1.7 29 93 -2.6 27.3
23:40 1009 29.8 839 24.78 -1.9 28.5 93 -3 26.7
23:45 1009 29.8 839 24.78 -2.4 27.7 92 -3.4 25.8
23:50 1010 29.83 839 24.78 -2.6 27.4 93 -3.6 25.5
23:55 1010 29.83 839 24.78 -2.9 26.8 92 -4 24.8
24:00 1010 29.83 839 24.78 -3.1 26.3 92 -4.2 24.4